createdAt,value
2022-07-25T00:04:46.577Z,1008.549
2022-07-25T00:09:49.253Z,1008.481
2022-07-25T00:14:51.783Z,1008.446
2022-07-25T00:19:54.545Z,1008.327
2022-07-25T00:24:56.978Z,1008.282
2022-07-25T00:29:59.744Z,1008.274
2022-07-25T00:35:02.421Z,1008.245
2022-07-25T00:40:05.004Z,1008.202
2022-07-25T00:45:07.725Z,1008.119
2022-07-25T00:50:10.326Z,1008.111
2022-07-25T00:55:13.096Z,1008.083
2022-07-25T01:00:15.880Z,1007.982
2022-07-25T01:05:18.629Z,1008.001
2022-07-25T01:10:21.151Z,1007.963
2022-07-25T01:15:23.963Z,1007.941
2022-07-25T01:20:26.585Z,1007.952
2022-07-25T01:25:29.112Z,1007.845
2022-07-25T01:30:31.786Z,1007.801
2022-07-25T01:36:23.149Z,1007.824
2022-07-25T01:41:26.011Z,1007.838
2022-07-25T01:46:28.414Z,1007.768
2022-07-25T01:51:30.946Z,1007.672
2022-07-25T02:01:36.661Z,1007.555
2022-07-25T02:06:39.294Z,1007.542
2022-07-25T02:21:47.420Z,1007.382
2022-07-25T02:26:50.076Z,1007.327
2022-07-25T02:31:52.684Z,1007.28
2022-07-25T02:36:58.514Z,1007.265
2022-07-25T02:42:01.185Z,1007.137
2022-07-25T02:47:04.226Z,1007.116
2022-07-25T02:52:08.725Z,1007.124
2022-07-25T02:57:11.412Z,1007.058
2022-07-25T03:02:14.148Z,1007.046
2022-07-25T03:07:16.926Z,1006.961
2022-07-25T03:17:25.090Z,1006.918
2022-07-25T03:27:30.558Z,1006.794
2022-07-25T03:32:33.236Z,1006.722
2022-07-25T03:37:35.960Z,1006.739
2022-07-25T03:42:56.753Z,1006.648
2022-07-25T03:53:05.131Z,1006.576
2022-07-25T03:58:07.895Z,1006.502
2022-07-25T04:03:10.535Z,1006.524
2022-07-25T04:18:19.691Z,1006.399
2022-07-25T04:23:28.842Z,1006.417
2022-07-25T04:33:34.328Z,1006.308
2022-07-25T04:38:37.121Z,1006.15
2022-07-25T04:43:42.593Z,1006.125
2022-07-25T04:48:42.788Z,1006.034
2022-07-25T04:58:54.363Z,1005.844
2022-07-25T05:14:54.633Z,1005.634
2022-07-25T05:19:57.611Z,1005.566
2022-07-25T05:25:00.431Z,1005.608
2022-07-25T05:30:05.964Z,1005.554
2022-07-25T05:35:11.711Z,1005.533
2022-07-25T05:45:17.969Z,1005.51
2022-07-25T05:50:20.822Z,1005.491
2022-07-25T05:55:23.483Z,1005.477
2022-07-25T06:00:26.431Z,1005.454
2022-07-25T06:05:29.274Z,1005.408
2022-07-25T06:10:34.674Z,1005.347
2022-07-25T06:15:37.581Z,1005.282
2022-07-25T06:20:40.298Z,1005.21
2022-07-25T06:25:42.998Z,1005.154
2022-07-25T06:30:45.526Z,1005.106
2022-07-25T06:35:48.155Z,1005.08
2022-07-25T06:40:51.016Z,1004.985
2022-07-25T06:50:57.182Z,1004.932
2022-07-25T06:56:00.273Z,1004.831
2022-07-25T07:01:11.629Z,1004.829
2022-07-25T07:11:17.330Z,1004.648
2022-07-25T07:16:20.624Z,1004.58
2022-07-25T07:21:23.335Z,1004.579
2022-07-25T07:26:26.090Z,1004.457
2022-07-25T07:31:29.508Z,1004.491
2022-07-25T07:36:31.987Z,1004.44
2022-07-25T07:41:34.908Z,1004.372
2022-07-25T07:46:37.811Z,1004.358
2022-07-25T07:56:43.171Z,1004.275
2022-07-25T08:01:46.029Z,1004.238
2022-07-25T08:06:48.982Z,1004.182
2022-07-25T08:11:51.835Z,1004.15
2022-07-25T08:16:54.332Z,1004.117
2022-07-25T08:21:57.171Z,1004.085
2022-07-25T08:27:00.110Z,1004.012
2022-07-25T08:32:02.816Z,1004.015
2022-07-25T08:42:11.041Z,1004.035
2022-07-25T08:47:11.002Z,1003.903
2022-07-25T08:52:13.786Z,1003.831
2022-07-25T08:57:16.601Z,1003.814
2022-07-25T09:02:19.783Z,1003.835
2022-07-25T09:07:22.639Z,1003.705
2022-07-25T09:12:26.123Z,1003.648
2022-07-25T09:17:27.894Z,1003.568
2022-07-25T09:22:30.693Z,1003.53
2022-07-25T09:27:33.111Z,1003.424
2022-07-25T09:32:35.915Z,1003.327
2022-07-25T09:37:41.738Z,1003.205
2022-07-25T09:42:44.629Z,1003.08
2022-07-25T09:47:47.248Z,1003.052
2022-07-25T09:52:49.895Z,1002.936
2022-07-25T09:57:52.651Z,1002.91
2022-07-25T10:02:55.541Z,1002.722
2022-07-25T10:07:58.405Z,1002.775
2022-07-25T10:13:03.211Z,1002.697
2022-07-25T10:18:04.167Z,1002.59
2022-07-25T10:23:06.976Z,1002.546
2022-07-25T10:28:09.432Z,1002.448
2022-07-25T10:33:14.914Z,1002.305
2022-07-25T10:38:20.950Z,1002.318
2022-07-25T10:43:23.872Z,1002.244
2022-07-25T10:53:29.096Z,1001.933
2022-07-25T10:58:31.961Z,1001.917
2022-07-25T11:03:34.884Z,1001.634
2022-07-25T11:08:37.390Z,1001.768
2022-07-25T11:13:40.211Z,1001.695
2022-07-25T11:23:46.055Z,1001.605
2022-07-25T11:28:49.043Z,1001.656
2022-07-25T11:33:52.035Z,1001.605
2022-07-25T11:38:55.039Z,1001.44
2022-07-25T11:43:57.718Z,1001.355
2022-07-25T11:49:00.808Z,1001.31
2022-07-25T11:54:03.528Z,1001.145
2022-07-25T11:59:06.463Z,1001.191
2022-07-25T12:04:08.820Z,1001.152
2022-07-25T12:09:15.085Z,1001.011
2022-07-25T12:14:14.100Z,1001.017
2022-07-25T12:24:19.758Z,1000.767
2022-07-25T12:29:22.570Z,1000.665
2022-07-25T12:34:25.393Z,1000.767
2022-07-25T12:44:31.132Z,1000.381
2022-07-25T12:59:42.235Z,1000.151
2022-07-25T13:09:47.877Z,1000.228
2022-07-25T13:14:50.614Z,1000.144
2022-07-25T13:19:53.358Z,1000.089
2022-07-25T13:24:56.106Z,1000.042
2022-07-25T13:30:01.740Z,999.998
2022-07-25T13:35:04.489Z,999.9697
2022-07-25T13:40:07.268Z,999.7639
2022-07-25T13:50:13.040Z,999.6959
2022-07-25T13:55:15.775Z,999.6799
2022-07-25T14:00:18.750Z,999.6367
2022-07-25T14:15:26.436Z,999.4185
2022-07-25T14:25:32.296Z,999.2803
2022-07-25T14:35:37.512Z,999.1577
2022-07-25T14:40:40.241Z,999.2271
2022-07-25T14:45:42.957Z,999.0513
2022-07-25T14:50:45.611Z,999.076
2022-07-25T14:55:48.404Z,998.9981
2022-07-25T15:06:10.617Z,998.7977
2022-07-25T15:16:50.099Z,998.6628
2022-07-25T15:21:52.585Z,998.6295
2022-07-25T15:31:58.175Z,998.3541
2022-07-25T15:37:01.000Z,998.3619
2022-07-25T15:47:06.479Z,998.0767
2022-07-25T15:52:10.699Z,997.9938
2022-07-25T15:57:13.045Z,997.9117
2022-07-25T16:02:24.500Z,997.7883
2022-07-25T16:07:27.162Z,997.709
2022-07-25T16:12:29.616Z,997.6008
2022-07-25T16:17:32.232Z,997.6309
2022-07-25T16:22:35.025Z,997.5594
2022-07-25T16:27:37.484Z,997.5516
2022-07-25T16:32:40.487Z,997.4688
2022-07-25T16:37:43.132Z,997.4497
2022-07-25T16:42:45.713Z,997.5076
2022-07-25T16:47:51.034Z,998.1855
2022-07-25T16:52:53.411Z,998.4854
2022-07-25T16:57:55.769Z,998.3117
2022-07-25T17:02:58.069Z,998.2813
2022-07-25T17:18:06.196Z,998.3033
2022-07-25T17:28:11.531Z,998.8273
2022-07-25T17:43:19.047Z,998.9423
2022-07-25T17:48:21.776Z,999.1429
2022-07-25T17:53:24.385Z,999.2167
2022-07-25T17:58:29.909Z,999.3778
2022-07-25T18:03:32.430Z,999.3063
2022-07-25T18:08:35.404Z,998.9666
2022-07-25T18:13:41.796Z,999.2603
2022-07-25T18:23:50.384Z,999.1178
2022-07-25T18:28:52.927Z,999.211
2022-07-25T18:33:58.357Z,999.2274
2022-07-25T18:39:01.006Z,999.0886
2022-07-25T18:44:06.939Z,999.0457
2022-07-25T18:49:15.363Z,999.1702
2022-07-25T18:54:18.148Z,999.1234
2022-07-25T18:59:20.709Z,999.1425
2022-07-25T19:09:29.298Z,999.0372
2022-07-25T19:19:34.671Z,999.0499
2022-07-25T19:29:40.277Z,999.1149
2022-07-25T19:34:43.047Z,999.1696
2022-07-25T19:39:45.774Z,999.166
2022-07-25T19:44:48.318Z,999.1984
2022-07-25T19:49:50.983Z,1000.094
2022-07-25T19:54:53.719Z,1000.132
2022-07-25T19:59:56.349Z,1000.006
2022-07-25T20:04:59.038Z,999.9333
2022-07-25T20:10:04.514Z,999.9722
2022-07-25T20:15:07.212Z,1000.006
2022-07-25T20:20:10.011Z,1000.043
2022-07-25T20:25:12.711Z,1000.185
2022-07-25T20:30:15.246Z,1000.383
2022-07-25T20:35:18.086Z,1000.479
2022-07-25T20:40:20.550Z,1000.739
2022-07-25T20:45:23.178Z,1000.848
2022-07-25T20:50:25.975Z,1000.859
2022-07-25T20:55:28.611Z,1001.087
2022-07-25T21:00:31.107Z,1001.23
2022-07-25T21:05:34.026Z,1001.349
2022-07-25T21:10:36.547Z,1001.34
2022-07-25T21:15:39.413Z,1001.337
2022-07-25T21:20:41.841Z,1001.445
2022-07-25T21:25:44.520Z,1001.45
2022-07-25T21:30:47.022Z,1001.741
2022-07-25T21:35:52.779Z,1002.019
2022-07-25T21:40:57.563Z,1002.349
2022-07-25T21:46:00.314Z,1002.486
2022-07-25T21:51:07.647Z,1002.223
2022-07-25T21:56:05.895Z,1002.077
2022-07-25T22:01:08.619Z,1002.118
2022-07-25T22:06:10.983Z,1002.151
2022-07-25T22:11:16.197Z,1001.999
2022-07-25T22:16:16.246Z,1001.982
2022-07-25T22:21:19.018Z,1001.906
2022-07-25T22:26:21.577Z,1002.166
2022-07-25T22:31:24.483Z,1002.249
2022-07-25T22:36:27.013Z,1002.2
2022-07-25T22:41:29.574Z,1002.048
2022-07-25T22:46:32.126Z,1002.006
2022-07-25T22:51:37.694Z,1002.055
2022-07-25T22:56:40.433Z,1002.122
2022-07-25T23:01:43.063Z,1002.156
2022-07-25T23:06:45.735Z,1002.301
2022-07-25T23:11:48.364Z,1002.36
2022-07-25T23:16:51.178Z,1002.544
2022-07-25T23:21:53.632Z,1002.453
2022-07-25T23:32:01.969Z,1002.683
2022-07-25T23:47:10.295Z,1003.154
2022-07-25T23:52:12.080Z,1002.897
2022-07-25T23:57:20.316Z,1003.047
